Time;durP1;ratioP1;P1;durP2;ratioP2;P2;SDS_P1;SDS_P2;PMS_P1;PMS_P2;Temp;Humidity;BMP_temperature;BMP_pressure;BME280_temperature;BME280_humidity;BME280_pressure;Samples;Min_cycle;Max_cycle;Signal;HPM_P1;HPM_P2
2022/11/01 09:14:05;;;;;;;22.38;4.55;;;14.90;99.90;;;;;;4997059;24;20061;-79
2022/11/01 09:16:32;;;;;;;18.90;3.47;;;15.00;99.90;;;;;;5224895;24;20063;-77
2022/11/01 09:19:00;;;;;;;20.05;4.68;;;15.10;99.90;;;;;;4777953;29;20067;-82
2022/11/01 09:21:27;;;;;;;18.13;3.78;;;15.10;99.90;;;;;;4763038;29;20058;-82
2022/11/01 09:23:54;;;;;;;20.60;3.75;;;15.20;99.90;;;;;;4772793;29;20071;-79
2022/11/01 09:26:20;;;;;;;15.60;3.97;;;15.20;99.90;;;;;;4751770;29;20531;-80
2022/11/01 09:28:45;;;;;;;17.83;3.55;;;15.30;99.90;;;;;;4780327;29;20055;-79
2022/11/01 09:31:12;;;;;;;14.73;3.97;;;15.30;99.90;;;;;;4780625;29;20493;-79
2022/11/01 09:33:37;;;;;;;14.27;3.95;;;15.30;99.90;;;;;;4764252;29;20053;-79
2022/11/01 09:36:03;;;;;;;17.10;3.58;;;15.20;99.90;;;;;;4782562;29;20047;-79
2022/11/01 09:38:29;;;;;;;17.45;3.45;;;15.20;99.90;;;;;;4778115;29;20055;-78
2022/11/01 09:41:04;;;;;;;16.70;2.97;;;15.20;99.90;;;;;;4792482;29;20364;-79
2022/11/01 09:43:34;;;;;;;17.02;3.65;;;15.00;99.90;;;;;;4791332;29;20134;-79
2022/11/01 09:46:03;;;;;;;19.98;4.22;;;14.90;99.90;;;;;;4782310;29;20442;-79
2022/11/01 09:48:32;;;;;;;14.38;3.53;;;14.80;99.90;;;;;;4793900;29;20497;-78
2022/11/01 09:51:02;;;;;;;17.45;3.70;;;14.80;99.90;;;;;;4780455;29;20089;-79
2022/11/01 09:53:28;;;;;;;12.73;3.55;;;14.70;99.90;;;;;;4778818;29;20595;-78
2022/11/01 09:56:16;;;;;;;18.58;3.47;;;14.70;99.90;;;;;;4775270;29;20572;-79
2022/11/01 09:58:50;;;;;;;15.15;3.33;;;14.60;99.90;;;;;;4794989;29;20110;-79
2022/11/01 10:01:42;;;;;;;15.68;3.65;;;14.60;99.90;;;;;;4778724;29;20137;-78
2022/11/01 10:04:18;;;;;;;17.52;3.17;;;14.60;99.90;;;;;;4794710;29;20054;-78
2022/11/01 10:06:56;;;;;;;13.85;3.30;;;14.60;99.90;;;;;;4805869;29;20055;-78
2022/11/01 10:09:46;;;;;;;18.75;3.92;;;14.60;99.90;;;;;;4809084;29;20119;-78
2022/11/01 10:12:18;;;;;;;15.60;3.42;;;14.60;99.90;;;;;;4779168;29;20051;-77
2022/11/01 10:15:15;;;;;;;18.45;3.60;;;14.70;99.90;;;;;;4810980;29;20055;-78
2022/11/01 10:17:52;;;;;;;14.00;2.65;;;15.00;99.90;;;;;;4783099;29;20063;-77
2022/11/01 10:20:22;;;;;;;13.57;2.90;;;15.10;99.90;;;;;;4804586;29;20059;-78
2022/11/01 10:22:49;;;;;;;14.98;3.20;;;15.20;99.90;;;;;;4800710;29;20728;-77
2022/11/01 10:25:22;;;;;;;12.07;2.78;;;15.30;99.90;;;;;;4791909;29;20149;-78
2022/11/01 10:27:59;;;;;;;15.77;3.47;;;15.40;99.90;;;;;;4777557;29;20614;-77
2022/11/01 10:30:30;;;;;;;15.38;3.58;;;15.50;99.90;;;;;;4795876;29;20066;-77
2022/11/01 10:33:19;;;;;;;15.43;3.05;;;15.60;99.90;;;;;;4791324;29;20090;-78
2022/11/01 10:35:54;;;;;;;17.05;3.03;;;15.60;99.90;;;;;;4778601;29;20086;-78
2022/11/01 10:38:39;;;;;;;14.10;2.73;;;15.60;99.90;;;;;;4779868;29;20173;-78
2022/11/01 10:41:08;;;;;;;16.52;2.70;;;15.40;99.90;;;;;;4762687;29;20067;-78
2022/11/01 10:43:39;;;;;;;11.90;3.28;;;15.40;99.90;;;;;;4795851;29;20062;-78
2022/11/01 10:46:09;;;;;;;12.60;2.78;;;15.30;99.90;;;;;;4796046;29;20058;-78
2022/11/01 10:48:43;;;;;;;13.88;3.13;;;15.20;99.90;;;;;;4793227;29;20494;-78
2022/11/01 10:51:09;;;;;;;13.63;3.08;;;15.20;99.90;;;;;;4778843;29;20582;-79
2022/11/01 10:53:52;;;;;;;10.57;2.72;;;15.10;99.90;;;;;;4779939;29;20058;-78
2022/11/01 10:56:33;;;;;;;14.63;3.05;;;15.10;99.90;;;;;;4791293;29;20504;-78
2022/11/01 10:59:06;;;;;;;11.38;2.90;;;15.10;99.90;;;;;;4777599;29;20069;-78
2022/11/01 11:01:41;;;;;;;8.13;2.53;;;15.10;99.90;;;;;;4772952;29;20079;-78
2022/11/01 11:04:14;;;;;;;15.50;3.13;;;15.10;99.90;;;;;;4788679;29;20055;-80
2022/11/01 11:06:41;;;;;;;15.40;3.75;;;15.10;99.90;;;;;;4793574;29;20123;-79
2022/11/01 11:09:31;;;;;;;10.68;3.30;;;15.10;99.90;;;;;;4791257;29;20055;-79
2022/11/01 11:12:11;;;;;;;9.90;2.80;;;15.10;99.90;;;;;;4792230;29;20070;-80
2022/11/01 11:14:39;;;;;;;13.43;2.70;;;15.20;99.90;;;;;;4799650;29;20058;-80
2022/11/01 11:17:22;;;;;;;14.45;2.85;;;15.30;99.90;;;;;;4782057;29;20093;-80
2022/11/01 11:19:51;;;;;;;17.13;3.13;;;15.30;99.90;;;;;;4800343;29;20457;-79
2022/11/01 11:22:22;;;;;;;13.57;3.05;;;15.30;99.90;;;;;;4779788;29;20059;-77
2022/11/01 11:24:49;;;;;;;12.50;3.05;;;15.30;99.90;;;;;;4792411;29;20384;-78
2022/11/01 11:27:26;;;;;;;9.60;2.25;;;15.30;99.90;;;;;;4808642;29;20059;-78
2022/11/01 11:30:05;;;;;;;12.48;2.80;;;15.30;99.90;;;;;;4781789;29;20062;-78
2022/11/01 11:32:33;;;;;;;9.45;2.20;;;15.40;99.90;;;;;;4778660;29;20893;-79
2022/11/01 11:35:13;;;;;;;14.05;2.45;;;15.40;99.90;;;;;;4809155;29;20712;-78
2022/11/01 11:37:48;;;;;;;10.27;3.28;;;15.40;99.90;;;;;;4791511;29;20047;-78
2022/11/01 11:40:27;;;;;;;11.75;3.42;;;15.40;99.90;;;;;;4780847;29;20055;-78
2022/11/01 11:43:19;;;;;;;12.35;3.33;;;15.40;99.90;;;;;;4781794;29;20051;-79
2022/11/01 11:46:01;;;;;;;11.23;2.60;;;15.40;99.90;;;;;;4777133;29;20647;-79
2022/11/01 11:48:27;;;;;;;13.15;2.47;;;15.40;99.90;;;;;;4791420;29;20059;-80
2022/11/01 11:51:04;;;;;;;16.02;3.42;;;15.50;99.90;;;;;;4765396;29;20434;-79
2022/11/01 11:53:32;;;;;;;13.70;2.78;;;15.50;99.90;;;;;;4779072;29;20084;-79
2022/11/01 11:56:06;;;;;;;20.10;3.17;;;15.60;99.90;;;;;;4780876;29;20139;-80
2022/11/01 11:58:40;;;;;;;14.13;2.70;;;15.60;99.90;;;;;;4792544;29;20062;-79
2022/11/01 12:01:25;;;;;;;12.98;2.53;;;15.60;99.90;;;;;;4811039;29;20058;-80
2022/11/01 12:03:55;;;;;;;12.82;2.97;;;15.70;99.90;;;;;;4795861;29;20061;-79
2022/11/01 12:06:27;;;;;;;14.63;3.20;;;15.80;99.90;;;;;;4778407;29;20073;-78
2022/11/01 12:08:58;;;;;;;14.27;2.78;;;15.90;99.90;;;;;;4797159;29;20074;-79
2022/11/01 12:11:46;;;;;;;15.48;3.42;;;16.30;99.90;;;;;;4810368;29;20059;-80
2022/11/01 12:14:22;;;;;;;11.80;3.05;;;17.00;99.90;;;;;;4781661;29;20111;-79
2022/11/01 12:16:49;;;;;;;12.27;2.63;;;17.00;99.90;;;;;;4783720;29;20524;-80
2022/11/01 12:19:29;;;;;;;11.63;2.72;;;16.80;99.90;;;;;;4804730;29;21007;-87
2022/11/01 12:22:04;;;;;;;14.27;3.00;;;16.50;99.90;;;;;;4807260;29;20974;-79
2022/11/01 12:24:47;;;;;;;8.57;2.30;;;16.40;99.90;;;;;;4766531;29;20055;-80
2022/11/01 12:27:20;;;;;;;13.25;2.70;;;16.40;99.90;;;;;;4794472;29;20077;-78
2022/11/01 12:30:03;;;;;;;11.88;2.30;;;17.00;99.90;;;;;;4793970;29;20165;-78
2022/11/01 12:32:36;;;;;;;12.43;2.65;;;17.80;99.90;;;;;;4791402;29;20133;-78
2022/11/01 12:35:08;;;;;;;7.90;2.20;;;18.50;99.90;;;;;;4782396;29;20058;-78
2022/11/01 12:38:00;;;;;;;8.52;2.40;;;19.00;99.90;;;;;;4783503;29;20144;-78
2022/11/01 12:40:35;;;;;;;9.20;2.55;;;19.40;99.90;;;;;;4796451;29;20065;-78
2022/11/01 12:43:21;;;;;;;11.82;2.40;;;19.60;99.90;;;;;;4781882;29;20077;-78
2022/11/01 12:46:18;;;;;;;11.40;2.20;;;19.70;99.90;;;;;;4781521;29;20107;-78
2022/11/01 12:48:48;;;;;;;12.75;2.72;;;19.30;99.90;;;;;;4809628;29;20082;-78
2022/11/01 12:51:24;;;;;;;13.05;2.55;;;19.20;99.90;;;;;;4796674;29;20092;-78
2022/11/01 12:54:04;;;;;;;14.48;3.33;;;19.30;99.90;;;;;;4780401;29;20501;-78
2022/11/01 12:56:31;;;;;;;12.32;2.55;;;19.30;99.90;;;;;;4795431;29;20492;-78
2022/11/01 12:58:56;;;;;;;12.43;2.63;;;18.90;99.90;;;;;;4779113;29;20070;-78
2022/11/01 13:01:44;;;;;;;12.55;2.80;;;18.40;99.90;;;;;;4793784;29;20059;-78
2022/11/01 13:04:36;;;;;;;9.45;2.53;;;17.50;99.90;;;;;;4796549;29;20051;-78
2022/11/01 13:07:32;;;;;;;9.60;2.13;;;17.60;99.90;;;;;;4789179;29;20409;-78
2022/11/01 13:10:13;;;;;;;9.38;2.30;;;17.30;99.90;;;;;;4794239;29;20412;-79
2022/11/01 13:13:00;;;;;;;8.63;2.17;;;17.20;99.90;;;;;;4794076;29;20455;-78
2022/11/01 13:15:51;;;;;;;8.38;2.08;;;17.40;99.90;;;;;;4794769;29;20058;-78
2022/11/01 13:18:19;;;;;;;7.85;2.55;;;17.40;99.90;;;;;;4798171;29;20142;-79
2022/11/01 13:21:14;;;;;;;10.05;2.33;;;17.00;99.90;;;;;;4794414;29;20055;-79
2022/11/01 13:23:53;;;;;;;8.50;2.30;;;17.10;99.90;;;;;;4782829;29;20067;-79
2022/11/01 13:26:32;;;;;;;11.50;2.58;;;17.10;99.90;;;;;;4792708;29;20047;-78
2022/11/01 13:29:25;;;;;;;8.38;1.77;;;17.10;99.90;;;;;;4793461;29;20428;-79
2022/11/01 13:32:11;;;;;;;9.77;2.40;;;17.30;99.90;;;;;;4794681;29;20095;-79
2022/11/01 13:34:55;;;;;;;;;;;17.40;99.90;;;;;;4799559;29;20062;-78
2022/11/01 13:37:31;;;;;;;7.35;2.25;;;17.30;99.90;;;;;;4782375;29;19929;-79
2022/11/01 13:40:20;;;;;;;6.75;1.90;;;17.20;99.90;;;;;;4796926;29;20070;-79
2022/11/01 13:43:09;;;;;;;7.28;2.10;;;17.10;99.90;;;;;;4778911;29;20059;-79
2022/11/01 13:45:54;;;;;;;7.82;1.90;;;16.90;99.90;;;;;;4795197;29;20097;-79
2022/11/01 13:48:34;;;;;;;8.88;2.55;;;16.90;99.90;;;;;;4808186;29;20047;-79
2022/11/01 13:51:16;;;;;;;8.73;2.30;;;16.80;99.90;;;;;;4781901;29;20066;-79
2022/11/01 13:54:00;;;;;;;8.88;2.40;;;16.70;99.90;;;;;;4799642;29;20051;-79
2022/11/01 13:57:10;;;;;;;6.22;2.33;;;16.70;99.90;;;;;;4804647;29;21006;-78
2022/11/01 13:59:35;;;;;;;6.10;1.67;;;16.60;99.90;;;;;;4718392;30;20756;-79
2022/11/01 14:02:26;;;;;;;5.50;1.65;;;16.40;99.90;;;;;;4776030;29;20074;-79
2022/11/01 14:04:58;;;;;;;6.28;1.77;;;16.30;99.90;;;;;;4796539;29;20145;-81
2022/11/01 14:07:29;;;;;;;6.55;1.92;;;16.20;99.90;;;;;;4776128;29;20055;-79
2022/11/01 14:09:55;;;;;;;7.07;2.25;;;16.10;99.90;;;;;;4791840;29;20450;-81
2022/11/01 14:12:39;;;;;;;6.97;1.42;;;16.10;99.90;;;;;;4792642;29;20120;-79
2022/11/01 14:15:18;;;;;;;6.07;1.73;;;16.00;99.90;;;;;;4807097;29;20055;-80
2022/11/01 14:17:56;;;;;;;7.47;1.67;;;15.90;99.90;;;;;;4779298;29;20513;-80
2022/11/01 14:20:25;;;;;;;9.02;1.80;;;15.90;99.90;;;;;;4778338;29;20109;-81
2022/11/01 14:22:51;;;;;;;7.70;1.80;;;15.80;99.90;;;;;;4781379;29;20051;-81
2022/11/01 14:25:17;;;;;;;6.97;1.70;;;15.80;99.90;;;;;;4780435;29;20383;-80
2022/11/01 14:27:48;;;;;;;6.15;1.55;;;15.70;99.90;;;;;;4809959;29;20137;-81
2022/11/01 14:30:14;;;;;;;6.90;1.98;;;15.70;99.90;;;;;;4775562;29;20142;-80
2022/11/01 14:32:42;;;;;;;5.78;1.45;;;15.60;99.90;;;;;;4783991;29;20078;-80
2022/11/01 14:35:11;;;;;;;6.47;1.60;;;15.60;99.90;;;;;;4794885;29;20245;-81
2022/11/01 14:37:46;;;;;;;7.47;1.92;;;15.60;99.90;;;;;;4785581;29;20057;-79
2022/11/01 14:40:24;;;;;;;6.30;1.40;;;15.50;99.90;;;;;;4814140;29;20074;-81
2022/11/01 14:42:54;;;;;;;4.55;1.33;;;15.50;99.90;;;;;;4802945;29;20576;-80
2022/11/01 14:45:28;;;;;;;8.25;2.00;;;15.50;99.90;;;;;;4788262;29;20083;-81
2022/11/01 14:47:59;;;;;;;8.20;1.42;;;15.40;99.90;;;;;;4799604;29;20058;-80
2022/11/01 14:50:39;;;;;;;7.78;1.40;;;15.40;99.90;;;;;;4803341;29;20526;-81
2022/11/01 14:53:30;;;;;;;7.75;1.58;;;15.30;99.90;;;;;;4803127;29;20237;-80
2022/11/01 14:56:18;;;;;;;7.45;1.40;;;15.30;99.90;;;;;;4777188;29;20066;-80
2022/11/01 14:58:45;;;;;;;10.48;1.65;;;15.20;99.90;;;;;;4788490;29;20050;-80
2022/11/01 15:01:17;;;;;;;6.13;1.67;;;15.20;99.90;;;;;;4801618;29;20054;-78
2022/11/01 15:04:01;;;;;;;5.05;2.22;;;15.20;99.90;;;;;;4784984;29;20067;-78
2022/11/01 15:06:29;;;;;;;17.45;6.55;;;15.10;99.90;;;;;;4785390;29;20074;-79
2022/11/01 15:09:02;;;;;;;7.72;2.45;;;15.10;99.90;;;;;;4785954;29;20096;-79
2022/11/01 15:11:30;;;;;;;6.55;1.92;;;15.00;99.90;;;;;;4800148;29;20404;-79
2022/11/01 15:13:57;;;;;;;8.60;1.83;;;14.90;99.90;;;;;;4785668;29;20809;-79
2022/11/01 15:16:28;;;;;;;6.72;1.60;;;14.90;99.90;;;;;;4781450;29;21202;-80
2022/11/01 15:19:09;;;;;;;6.07;1.52;;;14.90;99.90;;;;;;4795693;29;20070;-80
2022/11/01 15:21:41;;;;;;;4.82;1.45;;;14.80;99.90;;;;;;4785016;29;20084;-79
2022/11/01 15:24:25;;;;;;;8.43;1.58;;;14.80;99.90;;;;;;4796298;29;20062;-78
2022/11/01 15:26:52;;;;;;;5.95;1.58;;;14.70;99.90;;;;;;4802424;29;20401;-78
2022/11/01 15:29:20;;;;;;;6.35;1.55;;;14.80;99.90;;;;;;4780994;29;20062;-79
2022/11/01 15:31:50;;;;;;;5.07;1.35;;;14.70;99.90;;;;;;4797195;29;20055;-79
2022/11/01 15:34:35;;;;;;;8.27;1.70;;;14.60;99.90;;;;;;4784419;29;20061;-78
2022/11/01 15:37:23;;;;;;;5.22;1.40;;;14.60;99.90;;;;;;4783442;29;20113;-79
2022/11/01 15:39:50;;;;;;;8.95;1.90;;;14.60;99.90;;;;;;4788036;29;20070;-78
2022/11/01 15:42:21;;;;;;;8.50;1.55;;;14.50;99.90;;;;;;4784773;29;20101;-79
2022/11/01 15:44:47;;;;;;;5.65;1.75;;;14.50;99.90;;;;;;4797637;29;20107;-79
2022/11/01 15:47:19;;;;;;;8.15;1.70;;;14.50;99.90;;;;;;4784250;29;20384;-79
2022/11/01 15:49:48;;;;;;;6.30;1.60;;;14.40;99.90;;;;;;4796782;29;20659;-79
2022/11/01 15:52:21;;;;;;;6.20;1.73;;;14.40;99.90;;;;;;4795090;29;20055;-79
2022/11/01 15:54:56;;;;;;;6.07;1.60;;;14.30;99.90;;;;;;4782468;29;20084;-78
2022/11/01 15:57:44;;;;;;;6.32;1.60;;;14.30;99.90;;;;;;4796981;29;20057;-79
2022/11/01 16:00:16;;;;;;;6.03;1.80;;;14.30;99.90;;;;;;4777772;29;20061;-79
2022/11/01 16:02:59;;;;;;;6.30;1.35;;;14.20;99.90;;;;;;4775406;29;20087;-78
2022/11/01 16:05:28;;;;;;;6.32;1.58;;;14.20;99.90;;;;;;4778674;29;20057;-79
2022/11/01 16:07:55;;;;;;;7.55;1.80;;;14.20;99.90;;;;;;4794025;29;20123;-79
2022/11/01 16:10:26;;;;;;;7.53;1.67;;;14.20;99.90;;;;;;4764929;29;20053;-79
2022/11/01 16:12:53;;;;;;;8.07;1.83;;;14.10;99.90;;;;;;4777249;29;20059;-78
2022/11/01 16:15:31;;;;;;;8.38;1.70;;;14.10;99.90;;;;;;4761917;29;20105;-78
2022/11/01 16:17:58;;;;;;;6.40;1.55;;;14.10;99.90;;;;;;4793356;29;20063;-78
2022/11/01 16:20:30;;;;;;;7.30;1.88;;;14.10;99.90;;;;;;4779363;29;20058;-79
2022/11/01 16:22:59;;;;;;;4.00;1.50;;;14.00;99.90;;;;;;4791005;29;20555;-79
2022/11/01 16:25:26;;;;;;;5.03;1.48;;;14.10;99.90;;;;;;4791526;29;20063;-79
2022/11/01 16:28:05;;;;;;;4.72;1.52;;;14.00;99.90;;;;;;4776744;29;20054;-79
2022/11/01 16:31:01;;;;;;;4.93;1.55;;;14.00;99.90;;;;;;4777430;29;20058;-79
2022/11/01 16:33:43;;;;;;;6.85;1.83;;;14.00;99.90;;;;;;4771612;29;20123;-78
2022/11/01 16:36:18;;;;;;;7.47;1.50;;;14.00;99.90;;;;;;4804725;29;20564;-80
2022/11/01 16:38:52;;;;;;;7.88;1.63;;;14.00;99.90;;;;;;4792565;29;20528;-78
2022/11/01 16:41:35;;;;;;;5.55;1.63;;;14.00;99.90;;;;;;4802987;29;20083;-78
2022/11/01 16:44:14;;;;;;;7.07;1.95;;;14.00;99.90;;;;;;4792650;29;20066;-78
2022/11/01 16:46:40;;;;;;;5.22;1.42;;;14.00;99.90;;;;;;4776257;29;20088;-79
2022/11/01 16:49:24;;;;;;;4.28;1.45;;;14.00;99.90;;;;;;4779221;29;20429;-79
2022/11/01 16:51:52;;;;;;;9.77;1.50;;;14.00;99.90;;;;;;4777260;29;20066;-78
2022/11/01 16:54:17;;;;;;;7.80;1.45;;;14.00;99.90;;;;;;4775006;29;20046;-78
2022/11/01 16:56:46;;;;;;;6.40;1.50;;;14.10;99.90;;;;;;4762410;29;20120;-76
2022/11/01 16:59:33;;;;;;;6.40;1.40;;;14.10;99.90;;;;;;4774107;29;20054;-78
2022/11/01 17:02:01;;;;;;;6.47;1.45;;;14.10;99.90;;;;;;4779154;29;20097;-79
2022/11/01 17:04:27;;;;;;;8.55;1.98;;;14.10;99.90;;;;;;4777339;29;20050;-78
2022/11/01 17:06:54;;;;;;;7.50;1.42;;;14.10;99.90;;;;;;4781257;29;20051;-79
2022/11/01 17:09:24;;;;;;;6.70;1.45;;;14.10;99.90;;;;;;4747570;29;20043;-80
2022/11/01 17:11:52;;;;;;;5.47;1.30;;;14.10;99.90;;;;;;4769016;29;20073;-78
2022/11/01 17:14:20;;;;;;;6.03;1.65;;;14.10;99.90;;;;;;4761750;29;20054;-79
2022/11/01 17:16:47;;;;;;;6.40;1.60;;;14.10;99.90;;;;;;4790051;29;20501;-78
2022/11/01 17:19:30;;;;;;;4.55;1.20;;;14.10;99.90;;;;;;4781801;29;20061;-80
2022/11/01 17:22:01;;;;;;;5.97;1.63;;;14.10;99.90;;;;;;4780956;29;20463;-79
2022/11/01 17:24:28;;;;;;;7.03;1.70;;;14.20;99.90;;;;;;4766156;29;20050;-79
2022/11/01 17:26:58;;;;;;;6.57;1.42;;;14.20;99.90;;;;;;4787093;29;20077;-79
2022/11/01 17:29:25;;;;;;;7.55;1.45;;;14.20;99.90;;;;;;4805245;29;20046;-78
2022/11/01 17:31:50;;;;;;;6.80;1.60;;;14.20;99.90;;;;;;4798324;29;20050;-78
2022/11/01 17:34:16;;;;;;;5.57;1.73;;;14.20;99.90;;;;;;4781551;29;20050;-78
2022/11/01 17:36:46;;;;;;;8.77;1.55;;;14.10;99.90;;;;;;4795766;29;20042;-78
2022/11/01 17:39:12;;;;;;;7.90;1.73;;;14.10;99.90;;;;;;4796107;29;20050;-79
2022/11/01 17:41:38;;;;;;;6.47;1.60;;;14.10;99.90;;;;;;4771983;29;20046;-79
2022/11/01 17:44:04;;;;;;;6.65;1.75;;;14.10;99.90;;;;;;4773517;29;20609;-79
2022/11/01 17:46:30;;;;;;;8.07;2.15;;;14.10;99.90;;;;;;4796784;29;20051;-79
2022/11/01 17:48:56;;;;;;;5.93;1.67;;;14.10;99.90;;;;;;4783434;29;20064;-79
2022/11/01 17:51:24;;;;;;;9.07;1.85;;;14.10;99.90;;;;;;4754216;29;20054;-78
2022/11/01 17:53:54;;;;;;;8.98;1.80;;;14.10;99.90;;;;;;4781503;29;20057;-79
2022/11/01 17:56:21;;;;;;;7.95;2.00;;;14.10;99.90;;;;;;4805145;29;20064;-78
2022/11/01 17:58:49;;;;;;;6.55;1.70;;;14.20;99.90;;;;;;4776356;29;20082;-80
2022/11/01 18:01:17;;;;;;;7.65;1.88;;;14.10;99.90;;;;;;4779624;29;20460;-79
2022/11/01 18:03:43;;;;;;;8.35;2.10;;;14.20;99.90;;;;;;4782224;29;20051;-78
2022/11/01 18:06:09;;;;;;;8.98;1.70;;;14.20;99.90;;;;;;4782921;29;20099;-77
2022/11/01 18:08:35;;;;;;;7.68;2.00;;;14.20;99.90;;;;;;4785208;29;20496;-78
2022/11/01 18:11:16;;;;;;;8.88;1.80;;;14.10;99.90;;;;;;4794772;29;20055;-78
2022/11/01 18:13:50;;;;;;;7.68;2.08;;;14.10;99.90;;;;;;4784343;29;20071;-79
2022/11/01 18:16:27;;;;;;;6.30;1.95;;;14.00;99.90;;;;;;4809926;29;20106;-78
2022/11/01 18:19:31;;;;;;;7.85;2.60;;;13.90;99.90;;;;;;4795124;29;20137;-77
2022/11/01 18:22:18;;;;;;;10.95;2.90;;;13.80;99.90;;;;;;4805449;29;20062;-77
2022/11/01 18:24:57;;;;;;;14.13;2.63;;;13.70;99.90;;;;;;4799434;29;20069;-78
2022/11/01 18:27:32;;;;;;;19.08;3.42;;;13.60;99.90;;;;;;4799273;29;20050;-78
2022/11/01 18:30:00;;;;;;;17.98;3.42;;;13.60;99.90;;;;;;4798710;29;20050;-78
2022/11/01 18:32:43;;;;;;;12.50;2.40;;;13.50;99.90;;;;;;4798614;29;20094;-78
2022/11/01 18:35:43;;;;;;;16.92;2.80;;;13.30;99.90;;;;;;4797046;29;20807;-78
2022/11/01 18:38:14;;;;;;;15.55;1.90;;;13.00;99.90;;;;;;4798069;29;20060;-78
2022/11/01 18:40:49;;;;;;;19.58;2.85;;;12.80;99.90;;;;;;4783706;29;20057;-78
2022/11/01 18:43:18;;;;;;;17.73;2.80;;;12.60;99.90;;;;;;4781034;29;20135;-79
2022/11/01 18:45:44;;;;;;;19.20;3.08;;;12.50;99.90;;;;;;4796128;29;20054;-78
2022/11/01 18:48:25;;;;;;;18.85;3.55;;;12.50;99.90;;;;;;4781283;29;20054;-77
2022/11/01 18:50:56;;;;;;;15.25;2.30;;;12.50;99.90;;;;;;4797265;29;20054;-78
2022/11/01 18:53:23;;;;;;;11.52;2.17;;;12.40;99.90;;;;;;4780162;29;20066;-78
2022/11/01 18:55:50;;;;;;;12.85;2.78;;;12.30;99.90;;;;;;4798308;29;20129;-78
2022/11/01 18:58:27;;;;;;;13.55;2.63;;;12.30;99.90;;;;;;4796565;29;20058;-78
2022/11/01 19:01:15;;;;;;;13.80;3.03;;;12.20;99.90;;;;;;4795969;29;20133;-79
2022/11/01 19:03:41;;;;;;;18.83;3.00;;;12.20;99.90;;;;;;4807092;29;20133;-78
2022/11/01 19:06:20;;;;;;;11.85;2.45;;;12.10;99.90;;;;;;4795820;29;20568;-78
2022/11/01 19:08:53;;;;;;;12.32;2.50;;;12.10;99.90;;;;;;4793680;29;20194;-79
2022/11/01 19:11:19;;;;;;;14.30;3.08;;;12.10;99.90;;;;;;4811166;29;20054;-78
2022/11/01 19:13:47;;;;;;;20.75;2.58;;;12.10;99.90;;;;;;4779415;29;20144;-78
2022/11/01 19:16:15;;;;;;;11.45;2.50;;;12.20;99.90;;;;;;4797587;29;20679;-78
2022/11/01 19:18:42;;;;;;;14.38;2.13;;;12.20;99.90;;;;;;4790691;29;20066;-78
2022/11/01 19:21:17;;;;;;;8.48;1.70;;;12.20;99.90;;;;;;4791113;29;20081;-78
2022/11/01 19:23:53;;;;;;;2.90;1.30;;;12.20;99.90;;;;;;4793741;29;20106;-78
2022/11/01 19:26:28;;;;;;;2.45;1.00;;;12.20;99.90;;;;;;4780920;29;20066;-79
2022/11/01 19:28:54;;;;;;;4.43;1.40;;;12.10;99.90;;;;;;4793814;29;20108;-79
2022/11/01 19:31:27;;;;;;;3.28;0.85;;;12.10;99.90;;;;;;4794350;29;20129;-77
2022/11/01 19:33:55;;;;;;;3.33;1.05;;;12.10;99.90;;;;;;4799912;29;20483;-78
2022/11/01 19:36:24;;;;;;;3.17;0.70;;;12.10;99.90;;;;;;4798094;29;20042;-78
2022/11/01 19:38:51;;;;;;;2.10;0.82;;;12.10;99.90;;;;;;4796820;29;20058;-78
2022/11/01 19:41:27;;;;;;;2.25;1.00;;;12.10;99.90;;;;;;4785911;29;20077;-79
2022/11/01 19:43:57;;;;;;;1.13;0.55;;;12.10;99.90;;;;;;4800136;29;20126;-78
2022/11/01 19:46:22;;;;;;;2.28;0.80;;;12.10;99.90;;;;;;4812295;29;20050;-80
2022/11/01 19:48:48;;;;;;;1.42;0.73;;;12.10;99.90;;;;;;4783509;29;20051;-78
2022/11/01 19:51:25;;;;;;;2.80;1.05;;;12.10;99.90;;;;;;4783992;29;20452;-77
2022/11/01 19:53:52;;;;;;;6.15;0.90;;;12.10;99.90;;;;;;4800321;29;20061;-78
2022/11/01 19:56:25;;;;;;;1.48;0.75;;;12.10;99.90;;;;;;4782566;29;20402;-80
2022/11/01 19:58:54;;;;;;;3.70;0.98;;;12.10;99.90;;;;;;4800943;29;20476;-78
2022/11/01 20:01:41;;;;;;;4.70;1.02;;;12.10;99.90;;;;;;4781258;29;20047;-78
2022/11/01 20:04:16;;;;;;;4.40;1.10;;;12.10;99.90;;;;;;4785659;29;20377;-79
2022/11/01 20:06:54;;;;;;;2.87;1.00;;;12.10;99.90;;;;;;4783658;29;20062;-78
2022/11/01 20:09:28;;;;;;;3.35;0.80;;;12.10;99.90;;;;;;4786493;29;20322;-79
2022/11/01 20:11:55;;;;;;;3.33;1.00;;;12.10;99.90;;;;;;4798995;29;20066;-78
2022/11/01 20:14:21;;;;;;;2.67;0.90;;;12.10;99.90;;;;;;4809968;29;20501;-78
2022/11/01 20:16:47;;;;;;;4.20;1.20;;;12.10;99.90;;;;;;4798674;29;20066;-78
2022/11/01 20:19:13;;;;;;;5.40;1.30;;;12.10;99.90;;;;;;4784197;29;20072;-80
2022/11/01 20:21:39;;;;;;;5.47;1.38;;;12.10;99.90;;;;;;4780243;29;20153;-79
2022/11/01 20:24:05;;;;;;;6.70;1.13;;;12.20;99.90;;;;;;4782783;29;20207;-78
2022/11/01 20:26:31;;;;;;;3.08;1.20;;;12.20;99.90;;;;;;4766130;29;20054;-79
2022/11/01 20:28:57;;;;;;;5.15;1.35;;;12.20;99.90;;;;;;4782908;29;20046;-79
2022/11/01 20:31:24;;;;;;;4.80;1.55;;;12.20;99.90;;;;;;4775450;29;20575;-79
2022/11/01 20:33:50;;;;;;;6.20;1.30;;;12.30;99.90;;;;;;4793891;29;20062;-79
2022/11/01 20:36:16;;;;;;;3.13;1.35;;;12.30;99.90;;;;;;4762198;29;20062;-79
2022/11/01 20:38:42;;;;;;;3.78;1.17;;;12.30;99.90;;;;;;4791977;29;20393;-78
2022/11/01 20:41:08;;;;;;;6.03;1.63;;;12.30;99.90;;;;;;4792479;29;20050;-78
2022/11/01 20:43:34;;;;;;;5.03;1.58;;;12.40;99.90;;;;;;4782562;29;20056;-78
2022/11/01 20:45:59;;;;;;;4.53;1.50;;;12.40;99.90;;;;;;4780483;29;20909;-78
2022/11/01 20:48:25;;;;;;;7.32;1.60;;;12.40;99.90;;;;;;4781193;29;20064;-78
2022/11/01 20:50:52;;;;;;;6.93;1.50;;;12.40;99.90;;;;;;4783761;29;20750;-78
2022/11/01 20:53:18;;;;;;;4.28;1.45;;;12.50;99.90;;;;;;4794385;29;20053;-78
2022/11/01 20:55:44;;;;;;;7.78;1.50;;;12.40;99.90;;;;;;4782145;29;20050;-78
2022/11/01 20:58:10;;;;;;;5.97;2.38;;;12.50;99.90;;;;;;4785804;29;20057;-79
2022/11/01 21:00:36;;;;;;;5.88;1.65;;;12.50;99.90;;;;;;4779097;29;20054;-79
2022/11/01 21:03:13;;;;;;;7.18;1.70;;;12.50;99.90;;;;;;4777323;29;20127;-79
2022/11/01 21:05:40;;;;;;;6.38;1.92;;;12.50;99.90;;;;;;4779093;29;20576;-79
2022/11/01 21:08:09;;;;;;;9.73;1.70;;;12.50;99.90;;;;;;4791839;29;20062;-79
2022/11/01 21:10:37;;;;;;;6.65;1.98;;;12.50;99.90;;;;;;4789532;29;20061;-78
2022/11/01 21:13:18;;;;;;;4.45;1.63;;;12.50;99.90;;;;;;4794785;29;20190;-79
2022/11/01 21:15:45;;;;;;;5.22;1.50;;;12.50;99.90;;;;;;4791950;29;20662;-79
2022/11/01 21:18:10;;;;;;;7.63;1.42;;;12.50;99.90;;;;;;4767714;29;20059;-79
2022/11/01 21:20:48;;;;;;;7.07;1.80;;;12.50;99.90;;;;;;4795580;29;20118;-79
2022/11/01 21:23:27;;;;;;;5.13;1.33;;;12.50;99.90;;;;;;4781900;29;20137;-80
2022/11/01 21:25:59;;;;;;;6.03;1.42;;;12.50;99.90;;;;;;4811192;29;20046;-79
2022/11/01 21:28:35;;;;;;;4.75;1.60;;;12.50;99.90;;;;;;4795093;29;20062;-79
2022/11/01 21:31:13;;;;;;;6.35;1.58;;;12.50;99.90;;;;;;4795943;29;20543;-79
2022/11/01 21:33:55;;;;;;;6.32;1.70;;;12.50;99.90;;;;;;4792263;29;20058;-79
2022/11/01 21:36:20;;;;;;;5.78;1.50;;;12.50;99.90;;;;;;4795100;29;20137;-79
2022/11/01 21:38:56;;;;;;;7.25;1.67;;;12.60;99.90;;;;;;4806276;29;20875;-79
2022/11/01 21:41:32;;;;;;;5.45;1.42;;;12.60;99.90;;;;;;4792191;29;20062;-80
2022/11/01 21:44:19;;;;;;;6.45;1.50;;;12.60;99.90;;;;;;4792512;29;20090;-78
2022/11/01 21:46:47;;;;;;;5.45;1.77;;;12.60;99.90;;;;;;4791356;29;20050;-79
2022/11/01 21:49:25;;;;;;;6.65;2.20;;;12.60;99.90;;;;;;4778640;29;20584;-79
2022/11/01 21:51:53;;;;;;;4.28;1.50;;;12.60;99.90;;;;;;4797955;29;20473;-78
2022/11/01 21:54:19;;;;;;;3.75;1.38;;;12.60;99.90;;;;;;4782954;29;20109;-78
2022/11/01 21:56:45;;;;;;;6.97;1.83;;;12.60;99.90;;;;;;4794329;29;20058;-78
2022/11/01 21:59:10;;;;;;;4.65;1.88;;;12.50;99.90;;;;;;4812190;29;20069;-78
2022/11/01 22:01:38;;;;;;;6.22;2.38;;;12.50;99.90;;;;;;4782665;29;20050;-79
2022/11/01 22:04:04;;;;;;;6.35;1.98;;;12.50;99.90;;;;;;4778789;29;20085;-79
2022/11/01 22:06:29;;;;;;;5.32;1.70;;;12.50;99.90;;;;;;4764187;29;20201;-78
2022/11/01 22:08:55;;;;;;;8.40;2.03;;;12.50;99.90;;;;;;4791848;29;20516;-81
2022/11/01 22:11:21;;;;;;;6.82;1.80;;;12.40;99.90;;;;;;4766979;29;20055;-79
2022/11/01 22:13:47;;;;;;;8.07;1.90;;;12.40;99.90;;;;;;4777841;29;20058;-78
2022/11/01 22:16:12;;;;;;;7.95;2.00;;;12.40;99.90;;;;;;4766821;29;20076;-78
2022/11/01 22:18:38;;;;;;;7.22;1.73;;;12.40;99.90;;;;;;4750562;29;20135;-78
2022/11/01 22:21:04;;;;;;;11.50;1.83;;;12.40;99.90;;;;;;4762904;29;20065;-79
2022/11/01 22:23:30;;;;;;;9.57;2.15;;;12.40;99.90;;;;;;4793705;29;20054;-79
2022/11/01 22:25:55;;;;;;;7.97;1.90;;;12.30;99.90;;;;;;4776178;29;20376;-78
2022/11/01 22:28:21;;;;;;;8.38;1.83;;;12.40;99.90;;;;;;4775438;29;20054;-78